sensor_id;sensor_type;location;lat;lon;timestamp;temperature;humidity
43671;DHT22;29267;50.906;7.248;2023-11-19T00:00:33;9.30;99.90
43671;DHT22;29267;50.906;7.248;2023-11-19T00:02:59;9.30;99.90
43671;DHT22;29267;50.906;7.248;2023-11-19T00:05:25;9.40;99.90
43671;DHT22;29267;50.906;7.248;2023-11-19T00:07:50;9.40;99.90
43671;DHT22;29267;50.906;7.248;2023-11-19T00:10:16;9.40;99.90
43671;DHT22;29267;50.906;7.248;2023-11-19T00:12:47;9.40;99.90
43671;DHT22;29267;50.906;7.248;2023-11-19T00:15:14;9.40;99.90
43671;DHT22;29267;50.906;7.248;2023-11-19T00:17:40;9.40;99.90
43671;DHT22;29267;50.906;7.248;2023-11-19T00:20:13;9.40;99.90
43671;DHT22;29267;50.906;7.248;2023-11-19T00:22:39;9.40;99.90
43671;DHT22;29267;50.906;7.248;2023-11-19T00:25:06;9.40;99.90
43671;DHT22;29267;50.906;7.248;2023-11-19T00:27:32;9.40;99.90
43671;DHT22;29267;50.906;7.248;2023-11-19T00:29:58;9.40;99.90
43671;DHT22;29267;50.906;7.248;2023-11-19T00:32:24;9.50;99.90
43671;DHT22;29267;50.906;7.248;2023-11-19T00:34:50;9.40;99.90
43671;DHT22;29267;50.906;7.248;2023-11-19T00:37:16;9.50;99.90
43671;DHT22;29267;50.906;7.248;2023-11-19T00:39:42;9.40;99.90
43671;DHT22;29267;50.906;7.248;2023-11-19T00:44:44;9.50;99.90
43671;DHT22;29267;50.906;7.248;2023-11-19T00:47:11;9.50;99.90
43671;DHT22;29267;50.906;7.248;2023-11-19T00:49:37;9.50;99.90
43671;DHT22;29267;50.906;7.248;2023-11-19T00:52:03;9.50;99.90
43671;DHT22;29267;50.906;7.248;2023-11-19T00:54:29;9.60;99.90
43671;DHT22;29267;50.906;7.248;2023-11-19T00:56:55;9.60;99.90
43671;DHT22;29267;50.906;7.248;2023-11-19T00:59:21;9.60;99.90
43671;DHT22;29267;50.906;7.248;2023-11-19T01:01:47;9.60;99.90
43671;DHT22;29267;50.906;7.248;2023-11-19T01:04:16;9.60;99.90
43671;DHT22;29267;50.906;7.248;2023-11-19T01:06:42;9.60;99.90
43671;DHT22;29267;50.906;7.248;2023-11-19T01:09:08;9.60;99.90
43671;DHT22;29267;50.906;7.248;2023-11-19T01:11:35;9.60;99.90
43671;DHT22;29267;50.906;7.248;2023-11-19T01:14:00;9.70;99.90
43671;DHT22;29267;50.906;7.248;2023-11-19T01:16:26;9.70;99.90
43671;DHT22;29267;50.906;7.248;2023-11-19T01:18:52;9.70;99.90
43671;DHT22;29267;50.906;7.248;2023-11-19T01:21:18;9.70;99.90
43671;DHT22;29267;50.906;7.248;2023-11-19T01:23:44;9.80;99.90
43671;DHT22;29267;50.906;7.248;2023-11-19T01:26:11;9.90;99.90
43671;DHT22;29267;50.906;7.248;2023-11-19T01:28:38;9.90;99.90
43671;DHT22;29267;50.906;7.248;2023-11-19T01:31:15;9.90;99.90
43671;DHT22;29267;50.906;7.248;2023-11-19T01:33:41;10.00;99.90
43671;DHT22;29267;50.906;7.248;2023-11-19T01:36:07;10.00;99.90
43671;DHT22;29267;50.906;7.248;2023-11-19T01:38:34;10.10;99.90
43671;DHT22;29267;50.906;7.248;2023-11-19T01:41:00;10.10;99.90
43671;DHT22;29267;50.906;7.248;2023-11-19T01:43:38;10.10;99.90
43671;DHT22;29267;50.906;7.248;2023-11-19T01:46:07;10.10;99.90
43671;DHT22;29267;50.906;7.248;2023-11-19T01:48:38;10.20;99.90
43671;DHT22;29267;50.906;7.248;2023-11-19T01:51:07;10.10;99.90
43671;DHT22;29267;50.906;7.248;2023-11-19T01:53:35;10.20;99.90
43671;DHT22;29267;50.906;7.248;2023-11-19T01:56:02;10.20;99.90
43671;DHT22;29267;50.906;7.248;2023-11-19T01:58:28;10.10;99.90
43671;DHT22;29267;50.906;7.248;2023-11-19T02:00:56;10.20;99.90
43671;DHT22;29267;50.906;7.248;2023-11-19T02:03:23;10.20;99.90
43671;DHT22;29267;50.906;7.248;2023-11-19T02:05:51;10.20;99.90
43671;DHT22;29267;50.906;7.248;2023-11-19T02:08:18;10.20;99.90
43671;DHT22;29267;50.906;7.248;2023-11-19T02:10:45;10.20;99.90
43671;DHT22;29267;50.906;7.248;2023-11-19T02:13:11;10.20;99.90
43671;DHT22;29267;50.906;7.248;2023-11-19T02:15:40;10.20;99.90
43671;DHT22;29267;50.906;7.248;2023-11-19T02:18:23;10.20;99.90
43671;DHT22;29267;50.906;7.248;2023-11-19T02:20:50;10.30;99.90
43671;DHT22;29267;50.906;7.248;2023-11-19T02:23:16;10.20;99.90
43671;DHT22;29267;50.906;7.248;2023-11-19T02:25:43;10.30;99.90
43671;DHT22;29267;50.906;7.248;2023-11-19T02:28:13;10.30;99.90
43671;DHT22;29267;50.906;7.248;2023-11-19T02:30:38;10.30;99.90
43671;DHT22;29267;50.906;7.248;2023-11-19T02:33:04;10.30;99.90
43671;DHT22;29267;50.906;7.248;2023-11-19T02:35:34;10.30;99.90
43671;DHT22;29267;50.906;7.248;2023-11-19T02:38:00;10.30;99.90
43671;DHT22;29267;50.906;7.248;2023-11-19T02:40:26;10.30;99.90
43671;DHT22;29267;50.906;7.248;2023-11-19T02:42:53;10.30;99.90
43671;DHT22;29267;50.906;7.248;2023-11-19T02:45:23;10.30;99.90
43671;DHT22;29267;50.906;7.248;2023-11-19T02:47:50;10.20;99.90
43671;DHT22;29267;50.906;7.248;2023-11-19T02:50:18;10.20;99.90
43671;DHT22;29267;50.906;7.248;2023-11-19T02:52:51;10.20;99.90
43671;DHT22;29267;50.906;7.248;2023-11-19T02:55:17;10.20;99.90
43671;DHT22;29267;50.906;7.248;2023-11-19T02:57:43;10.20;99.90
43671;DHT22;29267;50.906;7.248;2023-11-19T03:00:22;10.20;99.90
43671;DHT22;29267;50.906;7.248;2023-11-19T03:02:58;10.20;99.90
43671;DHT22;29267;50.906;7.248;2023-11-19T03:05:42;10.20;99.90
43671;DHT22;29267;50.906;7.248;2023-11-19T03:08:10;10.20;99.90
43671;DHT22;29267;50.906;7.248;2023-11-19T03:10:35;10.20;99.90
43671;DHT22;29267;50.906;7.248;2023-11-19T03:13:02;10.20;99.90
43671;DHT22;29267;50.906;7.248;2023-11-19T03:15:28;10.20;99.90
43671;DHT22;29267;50.906;7.248;2023-11-19T03:17:53;10.20;99.90
43671;DHT22;29267;50.906;7.248;2023-11-19T03:20:19;10.10;99.90
43671;DHT22;29267;50.906;7.248;2023-11-19T03:22:46;10.20;99.90
43671;DHT22;29267;50.906;7.248;2023-11-19T03:25:12;10.20;99.90
43671;DHT22;29267;50.906;7.248;2023-11-19T03:27:38;10.20;99.90
43671;DHT22;29267;50.906;7.248;2023-11-19T03:30:10;10.20;99.90
43671;DHT22;29267;50.906;7.248;2023-11-19T03:32:36;10.10;99.90
43671;DHT22;29267;50.906;7.248;2023-11-19T03:35:04;10.20;99.90
43671;DHT22;29267;50.906;7.248;2023-11-19T03:37:32;10.20;99.90
43671;DHT22;29267;50.906;7.248;2023-11-19T03:40:02;10.20;99.90
43671;DHT22;29267;50.906;7.248;2023-11-19T03:42:29;10.20;99.90
43671;DHT22;29267;50.906;7.248;2023-11-19T03:44:57;10.20;99.90
43671;DHT22;29267;50.906;7.248;2023-11-19T03:47:23;10.20;99.90
43671;DHT22;29267;50.906;7.248;2023-11-19T03:49:50;10.20;99.90
43671;DHT22;29267;50.906;7.248;2023-11-19T03:52:17;10.20;99.90
43671;DHT22;29267;50.906;7.248;2023-11-19T03:54:43;10.30;99.90
43671;DHT22;29267;50.906;7.248;2023-11-19T03:57:09;10.30;99.90
43671;DHT22;29267;50.906;7.248;2023-11-19T03:59:37;10.40;99.90
43671;DHT22;29267;50.906;7.248;2023-11-19T04:02:03;10.40;99.90
43671;DHT22;29267;50.906;7.248;2023-11-19T04:04:29;10.40;99.90
43671;DHT22;29267;50.906;7.248;2023-11-19T04:06:56;10.50;99.90
43671;DHT22;29267;50.906;7.248;2023-11-19T04:09:22;10.50;99.90
43671;DHT22;29267;50.906;7.248;2023-11-19T04:11:48;10.50;99.90
43671;DHT22;29267;50.906;7.248;2023-11-19T04:14:14;10.60;99.90
43671;DHT22;29267;50.906;7.248;2023-11-19T04:16:40;10.60;99.90
43671;DHT22;29267;50.906;7.248;2023-11-19T04:19:06;10.70;99.90
43671;DHT22;29267;50.906;7.248;2023-11-19T04:21:33;10.80;99.90
43671;DHT22;29267;50.906;7.248;2023-11-19T04:23:58;10.80;99.90
43671;DHT22;29267;50.906;7.248;2023-11-19T04:26:24;10.80;99.90
43671;DHT22;29267;50.906;7.248;2023-11-19T04:28:50;10.80;99.90
43671;DHT22;29267;50.906;7.248;2023-11-19T04:31:16;10.80;99.90
43671;DHT22;29267;50.906;7.248;2023-11-19T04:33:42;10.90;99.90
43671;DHT22;29267;50.906;7.248;2023-11-19T04:36:09;10.90;99.90
43671;DHT22;29267;50.906;7.248;2023-11-19T04:38:35;10.80;99.90
43671;DHT22;29267;50.906;7.248;2023-11-19T04:41:01;10.80;99.90
43671;DHT22;29267;50.906;7.248;2023-11-19T04:43:27;11.00;99.90
43671;DHT22;29267;50.906;7.248;2023-11-19T04:45:53;11.00;99.90
43671;DHT22;29267;50.906;7.248;2023-11-19T04:48:19;11.00;99.90
43671;DHT22;29267;50.906;7.248;2023-11-19T04:50:45;11.10;99.90
43671;DHT22;29267;50.906;7.248;2023-11-19T04:53:11;11.20;99.90
43671;DHT22;29267;50.906;7.248;2023-11-19T04:55:37;11.30;99.90
43671;DHT22;29267;50.906;7.248;2023-11-19T04:58:03;11.20;99.90
43671;DHT22;29267;50.906;7.248;2023-11-19T05:00:29;11.30;99.90
43671;DHT22;29267;50.906;7.248;2023-11-19T05:02:55;11.30;99.90
43671;DHT22;29267;50.906;7.248;2023-11-19T05:05:21;11.20;99.90
43671;DHT22;29267;50.906;7.248;2023-11-19T05:07:47;11.30;99.90
43671;DHT22;29267;50.906;7.248;2023-11-19T05:10:12;11.30;99.90
43671;DHT22;29267;50.906;7.248;2023-11-19T05:12:38;11.30;99.90
43671;DHT22;29267;50.906;7.248;2023-11-19T05:15:05;11.30;99.90
43671;DHT22;29267;50.906;7.248;2023-11-19T05:17:30;11.40;99.90
43671;DHT22;29267;50.906;7.248;2023-11-19T05:19:56;11.40;99.90
43671;DHT22;29267;50.906;7.248;2023-11-19T05:22:23;11.40;99.90
43671;DHT22;29267;50.906;7.248;2023-11-19T05:24:48;11.40;99.90
43671;DHT22;29267;50.906;7.248;2023-11-19T05:27:15;11.30;99.90
43671;DHT22;29267;50.906;7.248;2023-11-19T05:29:40;11.20;99.90
43671;DHT22;29267;50.906;7.248;2023-11-19T05:32:07;11.20;99.90
43671;DHT22;29267;50.906;7.248;2023-11-19T05:34:33;11.10;99.90
43671;DHT22;29267;50.906;7.248;2023-11-19T05:36:59;11.10;99.90
43671;DHT22;29267;50.906;7.248;2023-11-19T05:39:25;11.10;99.90
43671;DHT22;29267;50.906;7.248;2023-11-19T05:41:51;11.00;99.90
43671;DHT22;29267;50.906;7.248;2023-11-19T05:44:17;11.00;99.90
43671;DHT22;29267;50.906;7.248;2023-11-19T05:46:44;10.80;99.90
43671;DHT22;29267;50.906;7.248;2023-11-19T05:49:11;10.80;99.90
43671;DHT22;29267;50.906;7.248;2023-11-19T05:51:40;10.80;99.90
43671;DHT22;29267;50.906;7.248;2023-11-19T05:54:10;10.90;99.90
43671;DHT22;29267;50.906;7.248;2023-11-19T05:56:36;10.90;99.90
43671;DHT22;29267;50.906;7.248;2023-11-19T05:59:02;10.90;99.90
43671;DHT22;29267;50.906;7.248;2023-11-19T06:01:40;10.80;99.90
43671;DHT22;29267;50.906;7.248;2023-11-19T06:04:07;10.80;99.90
43671;DHT22;29267;50.906;7.248;2023-11-19T06:06:33;10.90;99.90
43671;DHT22;29267;50.906;7.248;2023-11-19T06:08:58;10.90;99.90
43671;DHT22;29267;50.906;7.248;2023-11-19T06:11:24;10.90;99.90
43671;DHT22;29267;50.906;7.248;2023-11-19T06:13:52;10.80;99.90
43671;DHT22;29267;50.906;7.248;2023-11-19T06:16:18;10.70;99.90
43671;DHT22;29267;50.906;7.248;2023-11-19T06:18:44;10.60;99.90
43671;DHT22;29267;50.906;7.248;2023-11-19T06:21:11;10.50;99.90
43671;DHT22;29267;50.906;7.248;2023-11-19T06:23:37;10.50;99.90
43671;DHT22;29267;50.906;7.248;2023-11-19T06:26:03;10.50;99.90
43671;DHT22;29267;50.906;7.248;2023-11-19T06:28:31;10.50;99.90
43671;DHT22;29267;50.906;7.248;2023-11-19T06:30:56;10.60;99.90
43671;DHT22;29267;50.906;7.248;2023-11-19T06:33:24;10.60;99.90
43671;DHT22;29267;50.906;7.248;2023-11-19T06:35:50;10.60;99.90
43671;DHT22;29267;50.906;7.248;2023-11-19T06:38:16;10.70;99.90
43671;DHT22;29267;50.906;7.248;2023-11-19T06:40:41;10.70;99.90
43671;DHT22;29267;50.906;7.248;2023-11-19T06:43:07;10.70;99.90
43671;DHT22;29267;50.906;7.248;2023-11-19T06:45:36;10.70;99.90
43671;DHT22;29267;50.906;7.248;2023-11-19T06:48:05;10.70;99.90
43671;DHT22;29267;50.906;7.248;2023-11-19T06:50:31;10.80;99.90
43671;DHT22;29267;50.906;7.248;2023-11-19T06:52:58;10.80;99.90
43671;DHT22;29267;50.906;7.248;2023-11-19T06:55:23;10.90;99.90
43671;DHT22;29267;50.906;7.248;2023-11-19T06:57:49;10.90;99.90
43671;DHT22;29267;50.906;7.248;2023-11-19T07:00:15;10.90;99.90
43671;DHT22;29267;50.906;7.248;2023-11-19T07:02:41;10.90;99.90
43671;DHT22;29267;50.906;7.248;2023-11-19T07:05:07;10.90;99.90
43671;DHT22;29267;50.906;7.248;2023-11-19T07:07:34;10.90;99.90
43671;DHT22;29267;50.906;7.248;2023-11-19T07:10:01;10.90;99.90
43671;DHT22;29267;50.906;7.248;2023-11-19T07:12:27;10.90;99.90
43671;DHT22;29267;50.906;7.248;2023-11-19T07:14:53;10.90;99.90
43671;DHT22;29267;50.906;7.248;2023-11-19T07:17:20;10.90;99.90
43671;DHT22;29267;50.906;7.248;2023-11-19T07:19:47;10.90;99.90
43671;DHT22;29267;50.906;7.248;2023-11-19T07:22:13;10.90;99.90
43671;DHT22;29267;50.906;7.248;2023-11-19T07:24:39;10.90;99.90
43671;DHT22;29267;50.906;7.248;2023-11-19T07:27:07;10.80;99.90
43671;DHT22;29267;50.906;7.248;2023-11-19T07:29:35;10.80;99.90
43671;DHT22;29267;50.906;7.248;2023-11-19T07:32:01;10.80;99.90
43671;DHT22;29267;50.906;7.248;2023-11-19T07:34:30;10.80;99.90
43671;DHT22;29267;50.906;7.248;2023-11-19T07:36:56;10.80;99.90
43671;DHT22;29267;50.906;7.248;2023-11-19T07:39:28;10.80;99.90
43671;DHT22;29267;50.906;7.248;2023-11-19T07:41:53;10.90;99.90
43671;DHT22;29267;50.906;7.248;2023-11-19T07:44:20;10.90;99.90
43671;DHT22;29267;50.906;7.248;2023-11-19T07:46:47;10.90;99.90
43671;DHT22;29267;50.906;7.248;2023-11-19T07:49:14;11.00;99.90
43671;DHT22;29267;50.906;7.248;2023-11-19T07:51:40;11.00;99.90
43671;DHT22;29267;50.906;7.248;2023-11-19T07:54:06;11.00;99.90
43671;DHT22;29267;50.906;7.248;2023-11-19T07:56:35;11.10;99.90
43671;DHT22;29267;50.906;7.248;2023-11-19T07:59:03;11.20;99.90
43671;DHT22;29267;50.906;7.248;2023-11-19T08:01:29;11.20;99.90
43671;DHT22;29267;50.906;7.248;2023-11-19T08:03:55;11.20;99.90
43671;DHT22;29267;50.906;7.248;2023-11-19T08:06:21;11.20;99.90
43671;DHT22;29267;50.906;7.248;2023-11-19T08:08:47;11.20;99.90
43671;DHT22;29267;50.906;7.248;2023-11-19T08:11:13;11.20;99.90
43671;DHT22;29267;50.906;7.248;2023-11-19T08:13:40;11.20;99.90
43671;DHT22;29267;50.906;7.248;2023-11-19T08:16:06;11.20;99.90
43671;DHT22;29267;50.906;7.248;2023-11-19T08:18:32;11.20;99.90
43671;DHT22;29267;50.906;7.248;2023-11-19T08:20:58;11.20;99.90
43671;DHT22;29267;50.906;7.248;2023-11-19T08:23:24;11.20;99.90
43671;DHT22;29267;50.906;7.248;2023-11-19T08:25:51;11.20;99.90
43671;DHT22;29267;50.906;7.248;2023-11-19T08:28:18;11.30;99.90
43671;DHT22;29267;50.906;7.248;2023-11-19T08:30:43;11.40;99.90
43671;DHT22;29267;50.906;7.248;2023-11-19T08:33:10;11.50;99.90
43671;DHT22;29267;50.906;7.248;2023-11-19T08:35:35;11.60;99.90
43671;DHT22;29267;50.906;7.248;2023-11-19T08:38:01;11.70;99.90
43671;DHT22;29267;50.906;7.248;2023-11-19T08:40:28;11.70;99.90
43671;DHT22;29267;50.906;7.248;2023-11-19T08:42:53;11.70;99.90
43671;DHT22;29267;50.906;7.248;2023-11-19T08:45:19;11.70;99.90
43671;DHT22;29267;50.906;7.248;2023-11-19T08:47:45;11.70;99.90
43671;DHT22;29267;50.906;7.248;2023-11-19T08:50:11;11.80;99.90
43671;DHT22;29267;50.906;7.248;2023-11-19T08:52:37;11.90;99.90
43671;DHT22;29267;50.906;7.248;2023-11-19T08:55:04;11.90;99.90
43671;DHT22;29267;50.906;7.248;2023-11-19T08:57:31;12.00;99.90
43671;DHT22;29267;50.906;7.248;2023-11-19T08:59:58;12.10;99.90
43671;DHT22;29267;50.906;7.248;2023-11-19T09:02:24;12.10;99.90
43671;DHT22;29267;50.906;7.248;2023-11-19T09:04:49;12.00;99.90
43671;DHT22;29267;50.906;7.248;2023-11-19T09:07:16;12.00;99.90
43671;DHT22;29267;50.906;7.248;2023-11-19T09:09:42;12.00;99.90
43671;DHT22;29267;50.906;7.248;2023-11-19T09:12:08;12.10;99.90
43671;DHT22;29267;50.906;7.248;2023-11-19T09:14:34;12.20;99.90
43671;DHT22;29267;50.906;7.248;2023-11-19T09:16:59;12.20;99.90
43671;DHT22;29267;50.906;7.248;2023-11-19T09:19:25;12.20;99.90
43671;DHT22;29267;50.906;7.248;2023-11-19T09:21:54;12.20;99.90
43671;DHT22;29267;50.906;7.248;2023-11-19T09:24:20;12.20;99.90
43671;DHT22;29267;50.906;7.248;2023-11-19T09:26:46;12.20;99.90
43671;DHT22;29267;50.906;7.248;2023-11-19T09:29:12;12.30;99.90
43671;DHT22;29267;50.906;7.248;2023-11-19T09:31:39;12.40;99.90
43671;DHT22;29267;50.906;7.248;2023-11-19T09:34:05;12.60;99.90
43671;DHT22;29267;50.906;7.248;2023-11-19T09:36:31;12.60;99.90
43671;DHT22;29267;50.906;7.248;2023-11-19T09:38:57;12.80;99.90
43671;DHT22;29267;50.906;7.248;2023-11-19T09:41:23;13.00;99.90
43671;DHT22;29267;50.906;7.248;2023-11-19T09:43:50;13.10;99.90
43671;DHT22;29267;50.906;7.248;2023-11-19T09:46:16;13.10;99.90
43671;DHT22;29267;50.906;7.248;2023-11-19T09:48:43;13.20;99.90
43671;DHT22;29267;50.906;7.248;2023-11-19T09:51:10;13.20;99.90
43671;DHT22;29267;50.906;7.248;2023-11-19T09:53:37;13.30;99.90
43671;DHT22;29267;50.906;7.248;2023-11-19T09:56:04;13.10;99.90
43671;DHT22;29267;50.906;7.248;2023-11-19T09:58:34;13.10;99.90
43671;DHT22;29267;50.906;7.248;2023-11-19T10:01:00;13.10;99.90
43671;DHT22;29267;50.906;7.248;2023-11-19T10:03:33;13.20;99.90
43671;DHT22;29267;50.906;7.248;2023-11-19T10:06:09;13.30;99.90
43671;DHT22;29267;50.906;7.248;2023-11-19T10:08:39;13.40;99.90
43671;DHT22;29267;50.906;7.248;2023-11-19T10:11:06;13.40;99.90
43671;DHT22;29267;50.906;7.248;2023-11-19T10:13:35;13.40;99.90
43671;DHT22;29267;50.906;7.248;2023-11-19T10:16:12;13.40;99.90
43671;DHT22;29267;50.906;7.248;2023-11-19T10:18:46;13.40;99.90
43671;DHT22;29267;50.906;7.248;2023-11-19T10:21:13;13.30;99.90
43671;DHT22;29267;50.906;7.248;2023-11-19T10:23:49;13.40;99.90
43671;DHT22;29267;50.906;7.248;2023-11-19T10:26:18;13.40;99.90
43671;DHT22;29267;50.906;7.248;2023-11-19T10:28:48;13.30;99.90
43671;DHT22;29267;50.906;7.248;2023-11-19T10:31:16;13.30;99.90
43671;DHT22;29267;50.906;7.248;2023-11-19T10:33:42;13.30;99.90
43671;DHT22;29267;50.906;7.248;2023-11-19T10:36:11;13.40;99.90
43671;DHT22;29267;50.906;7.248;2023-11-19T10:38:40;13.40;99.90
43671;DHT22;29267;50.906;7.248;2023-11-19T10:41:07;13.60;99.90
43671;DHT22;29267;50.906;7.248;2023-11-19T10:43:43;13.60;99.90
43671;DHT22;29267;50.906;7.248;2023-11-19T10:46:11;13.70;99.90
43671;DHT22;29267;50.906;7.248;2023-11-19T10:48:38;13.70;99.90
43671;DHT22;29267;50.906;7.248;2023-11-19T10:51:06;13.70;99.90
43671;DHT22;29267;50.906;7.248;2023-11-19T10:53:37;13.80;99.90
43671;DHT22;29267;50.906;7.248;2023-11-19T10:56:06;13.60;99.90
43671;DHT22;29267;50.906;7.248;2023-11-19T10:58:36;13.70;99.90
43671;DHT22;29267;50.906;7.248;2023-11-19T11:01:11;13.50;99.90
43671;DHT22;29267;50.906;7.248;2023-11-19T11:03:40;13.60;99.90
43671;DHT22;29267;50.906;7.248;2023-11-19T11:06:06;13.60;99.90
43671;DHT22;29267;50.906;7.248;2023-11-19T11:08:32;13.50;99.90
43671;DHT22;29267;50.906;7.248;2023-11-19T11:11:02;13.40;99.90
43671;DHT22;29267;50.906;7.248;2023-11-19T11:13:30;13.50;99.90
43671;DHT22;29267;50.906;7.248;2023-11-19T11:15:57;13.50;99.90
43671;DHT22;29267;50.906;7.248;2023-11-19T11:18:24;13.40;99.90
43671;DHT22;29267;50.906;7.248;2023-11-19T11:21:04;13.30;99.90
43671;DHT22;29267;50.906;7.248;2023-11-19T11:29:14;12.90;99.90
43671;DHT22;29267;50.906;7.248;2023-11-19T11:31:49;12.90;99.90
43671;DHT22;29267;50.906;7.248;2023-11-19T11:39:40;13.00;99.90
43671;DHT22;29267;50.906;7.248;2023-11-19T11:50:17;13.10;99.90
43671;DHT22;29267;50.906;7.248;2023-11-19T11:56:06;13.10;99.90
43671;DHT22;29267;50.906;7.248;2023-11-19T11:58:30;13.20;99.90
43671;DHT22;29267;50.906;7.248;2023-11-19T12:00:58;13.20;99.90
43671;DHT22;29267;50.906;7.248;2023-11-19T12:03:28;13.30;99.90
43671;DHT22;29267;50.906;7.248;2023-11-19T12:05:54;13.40;99.90
43671;DHT22;29267;50.906;7.248;2023-11-19T12:08:25;13.40;99.90
43671;DHT22;29267;50.906;7.248;2023-11-19T12:10:57;13.40;99.90
43671;DHT22;29267;50.906;7.248;2023-11-19T12:13:46;13.20;99.90
43671;DHT22;29267;50.906;7.248;2023-11-19T12:16:14;13.10;99.90
43671;DHT22;29267;50.906;7.248;2023-11-19T12:18:40;13.20;99.90
43671;DHT22;29267;50.906;7.248;2023-11-19T12:21:07;13.30;99.90
43671;DHT22;29267;50.906;7.248;2023-11-19T12:23:35;13.50;99.90
43671;DHT22;29267;50.906;7.248;2023-11-19T12:26:01;13.60;99.90
43671;DHT22;29267;50.906;7.248;2023-11-19T12:28:27;13.70;99.90
43671;DHT22;29267;50.906;7.248;2023-11-19T12:31:08;13.70;99.90
43671;DHT22;29267;50.906;7.248;2023-11-19T12:33:36;13.90;99.90
43671;DHT22;29267;50.906;7.248;2023-11-19T12:36:03;13.80;99.90
43671;DHT22;29267;50.906;7.248;2023-11-19T12:38:31;13.70;99.90
43671;DHT22;29267;50.906;7.248;2023-11-19T12:41:07;13.80;99.90
43671;DHT22;29267;50.906;7.248;2023-11-19T12:43:34;13.80;99.90
43671;DHT22;29267;50.906;7.248;2023-11-19T12:46:03;13.80;99.90
43671;DHT22;29267;50.906;7.248;2023-11-19T12:48:42;13.80;99.90
43671;DHT22;29267;50.906;7.248;2023-11-19T12:51:07;13.70;99.90
43671;DHT22;29267;50.906;7.248;2023-11-19T12:53:50;13.80;99.90
43671;DHT22;29267;50.906;7.248;2023-11-19T12:56:17;13.70;99.90
43671;DHT22;29267;50.906;7.248;2023-11-19T12:58:43;13.70;99.90
43671;DHT22;29267;50.906;7.248;2023-11-19T13:01:09;13.60;99.90
43671;DHT22;29267;50.906;7.248;2023-11-19T13:03:38;13.50;99.90
43671;DHT22;29267;50.906;7.248;2023-11-19T13:06:09;13.30;99.90
43671;DHT22;29267;50.906;7.248;2023-11-19T13:08:42;13.20;99.90
43671;DHT22;29267;50.906;7.248;2023-11-19T13:11:10;13.20;99.90
43671;DHT22;29267;50.906;7.248;2023-11-19T13:14:00;13.10;99.90
43671;DHT22;29267;50.906;7.248;2023-11-19T13:16:27;13.00;99.90
43671;DHT22;29267;50.906;7.248;2023-11-19T13:18:53;12.90;99.90
43671;DHT22;29267;50.906;7.248;2023-11-19T13:21:19;12.80;99.90
43671;DHT22;29267;50.906;7.248;2023-11-19T13:23:45;12.90;99.90
43671;DHT22;29267;50.906;7.248;2023-11-19T13:26:11;12.90;99.90
43671;DHT22;29267;50.906;7.248;2023-11-19T13:28:37;12.90;99.90
43671;DHT22;29267;50.906;7.248;2023-11-19T13:31:04;12.80;99.90
43671;DHT22;29267;50.906;7.248;2023-11-19T13:33:29;12.80;99.90
43671;DHT22;29267;50.906;7.248;2023-11-19T13:35:56;12.80;99.90
43671;DHT22;29267;50.906;7.248;2023-11-19T13:38:21;12.80;99.90
43671;DHT22;29267;50.906;7.248;2023-11-19T13:40:49;12.90;99.90
43671;DHT22;29267;50.906;7.248;2023-11-19T13:43:15;13.00;99.90
43671;DHT22;29267;50.906;7.248;2023-11-19T13:45:41;13.20;99.90
43671;DHT22;29267;50.906;7.248;2023-11-19T13:48:06;13.30;99.90
43671;DHT22;29267;50.906;7.248;2023-11-19T13:50:32;13.40;99.90
43671;DHT22;29267;50.906;7.248;2023-11-19T13:52:59;13.30;99.90
43671;DHT22;29267;50.906;7.248;2023-11-19T13:55:25;13.20;99.90
43671;DHT22;29267;50.906;7.248;2023-11-19T13:57:51;13.20;99.90
43671;DHT22;29267;50.906;7.248;2023-11-19T14:00:17;13.20;99.90
43671;DHT22;29267;50.906;7.248;2023-11-19T14:02:46;13.20;99.90
43671;DHT22;29267;50.906;7.248;2023-11-19T14:05:15;13.30;99.90
43671;DHT22;29267;50.906;7.248;2023-11-19T14:07:43;13.30;99.90
43671;DHT22;29267;50.906;7.248;2023-11-19T14:10:10;13.20;99.90
43671;DHT22;29267;50.906;7.248;2023-11-19T14:12:37;13.20;99.90
43671;DHT22;29267;50.906;7.248;2023-11-19T14:15:04;13.20;99.90
43671;DHT22;29267;50.906;7.248;2023-11-19T14:17:32;13.20;99.90
43671;DHT22;29267;50.906;7.248;2023-11-19T14:19:58;13.10;99.90
43671;DHT22;29267;50.906;7.248;2023-11-19T14:22:23;13.00;99.90
43671;DHT22;29267;50.906;7.248;2023-11-19T14:27:20;12.90;99.90
43671;DHT22;29267;50.906;7.248;2023-11-19T14:29:46;12.90;99.90
43671;DHT22;29267;50.906;7.248;2023-11-19T14:32:12;12.90;99.90
43671;DHT22;29267;50.906;7.248;2023-11-19T14:34:38;12.70;99.90
43671;DHT22;29267;50.906;7.248;2023-11-19T14:37:04;12.80;99.90
43671;DHT22;29267;50.906;7.248;2023-11-19T14:39:30;12.70;99.90
43671;DHT22;29267;50.906;7.248;2023-11-19T14:41:57;12.70;99.90
43671;DHT22;29267;50.906;7.248;2023-11-19T14:44:31;12.70;99.90
43671;DHT22;29267;50.906;7.248;2023-11-19T14:46:56;12.60;99.90
43671;DHT22;29267;50.906;7.248;2023-11-19T14:49:22;12.60;99.90
43671;DHT22;29267;50.906;7.248;2023-11-19T14:51:49;12.60;99.90
43671;DHT22;29267;50.906;7.248;2023-11-19T14:54:15;12.50;99.90
43671;DHT22;29267;50.906;7.248;2023-11-19T14:56:42;12.50;99.90
43671;DHT22;29267;50.906;7.248;2023-11-19T14:59:07;12.50;99.90
43671;DHT22;29267;50.906;7.248;2023-11-19T15:01:33;12.60;99.90
43671;DHT22;29267;50.906;7.248;2023-11-19T15:03:59;12.50;99.90
43671;DHT22;29267;50.906;7.248;2023-11-19T15:06:25;12.50;99.90
43671;DHT22;29267;50.906;7.248;2023-11-19T15:08:52;12.50;99.90
43671;DHT22;29267;50.906;7.248;2023-11-19T15:11:18;12.50;99.90
43671;DHT22;29267;50.906;7.248;2023-11-19T15:13:44;12.50;99.90
43671;DHT22;29267;50.906;7.248;2023-11-19T15:16:10;12.50;99.90
43671;DHT22;29267;50.906;7.248;2023-11-19T15:18:40;12.50;99.90
43671;DHT22;29267;50.906;7.248;2023-11-19T15:21:06;12.40;99.90
43671;DHT22;29267;50.906;7.248;2023-11-19T15:23:33;12.40;99.90
43671;DHT22;29267;50.906;7.248;2023-11-19T15:25:59;12.30;99.90
43671;DHT22;29267;50.906;7.248;2023-11-19T15:28:25;12.20;99.90
43671;DHT22;29267;50.906;7.248;2023-11-19T15:30:51;12.10;99.90
43671;DHT22;29267;50.906;7.248;2023-11-19T15:33:17;12.10;99.90
43671;DHT22;29267;50.906;7.248;2023-11-19T15:35:43;12.00;99.90
43671;DHT22;29267;50.906;7.248;2023-11-19T15:38:08;12.00;99.90
43671;DHT22;29267;50.906;7.248;2023-11-19T15:40:35;11.90;99.90
43671;DHT22;29267;50.906;7.248;2023-11-19T15:43:04;11.90;99.90
43671;DHT22;29267;50.906;7.248;2023-11-19T15:45:32;11.90;99.90
43671;DHT22;29267;50.906;7.248;2023-11-19T15:48:03;11.90;99.90
43671;DHT22;29267;50.906;7.248;2023-11-19T15:50:29;11.90;99.90
43671;DHT22;29267;50.906;7.248;2023-11-19T15:52:55;11.80;99.90
43671;DHT22;29267;50.906;7.248;2023-11-19T15:55:20;11.80;99.90
43671;DHT22;29267;50.906;7.248;2023-11-19T15:57:46;11.70;99.90
43671;DHT22;29267;50.906;7.248;2023-11-19T16:00:12;11.60;99.90